Time;durP1;ratioP1;P1;durP2;ratioP2;P2;SDS_P1;SDS_P2;PMS_P1;PMS_P2;Temp;Humidity;BMP_temperature;BMP_pressure;BME280_temperature;BME280_humidity;BME280_pressure;Samples;Min_cycle;Max_cycle;Signal;HPM_P1;HPM_P2
2022/06/20 00:01:48;;;;;;;6.10;1.87;;;28.50;35.80;;;;;;2290231;55;21439;-72
2022/06/20 00:04:17;;;;;;;4.37;2.00;;;28.40;36.20;;;;;;2285700;55;20940;-72
2022/06/20 00:06:47;;;;;;;5.28;2.47;;;28.40;36.50;;;;;;2289906;55;21017;-72
2022/06/20 00:09:13;;;;;;;4.93;2.30;;;28.30;36.40;;;;;;2287431;55;21754;-74
2022/06/20 00:11:44;;;;;;;4.62;1.75;;;28.20;36.80;;;;;;2296957;54;21037;-74
2022/06/20 00:14:15;;;;;;;3.17;1.90;;;28.20;36.80;;;;;;2335514;54;20952;-71
2022/06/20 00:16:41;;;;;;;4.30;2.20;;;28.10;37.40;;;;;;2284222;55;21004;-74
2022/06/20 00:19:09;;;;;;;3.25;2.08;;;28.00;36.70;;;;;;2398633;54;21778;-71
2022/06/20 00:21:35;;;;;;;5.87;2.20;;;28.00;37.50;;;;;;2287144;55;21517;-71
2022/06/20 00:24:04;;;;;;;4.87;1.83;;;27.90;36.80;;;;;;2287794;55;21045;-74
2022/06/20 00:26:31;;;;;;;4.68;2.37;;;27.80;37.20;;;;;;2322256;54;21012;-70
2022/06/20 00:28:57;;;;;;;3.67;2.05;;;27.80;37.40;;;;;;2288706;55;21706;-71
2022/06/20 00:31:23;;;;;;;5.53;2.20;;;27.70;37.60;;;;;;2292694;55;20974;-72
2022/06/20 00:33:50;;;;;;;5.00;2.50;;;27.70;37.80;;;;;;2291556;55;21064;-72
2022/06/20 00:36:16;;;;;;;5.07;2.75;;;27.60;37.90;;;;;;2291695;55;21006;-72
2022/06/20 00:38:42;;;;;;;5.95;2.30;;;27.50;38.20;;;;;;2288846;55;20928;-73
2022/06/20 00:41:16;;;;;;;6.82;2.45;;;27.50;38.30;;;;;;2288535;55;21731;-72
2022/06/20 00:43:47;;;;;;;3.50;1.90;;;27.40;38.50;;;;;;2285308;55;20968;-71
2022/06/20 00:47:15;;;;;;;6.62;2.50;;;27.30;38.40;;;;;;2287856;55;20937;-71
2022/06/20 00:49:58;;;;;;;4.12;2.00;;;27.30;39.00;;;;;;2295817;55;20972;-71
2022/06/20 00:52:39;;;;;;;4.78;2.40;;;27.20;38.70;;;;;;2291648;55;21033;-70
2022/06/20 00:56:14;;;;;;;6.28;2.47;;;27.10;39.00;;;;;;2291128;55;21017;-71
2022/06/20 00:58:50;;;;;;;3.75;2.22;;;27.00;39.30;;;;;;2292873;55;21088;-70
2022/06/20 01:01:26;;;;;;;4.12;2.12;;;27.00;39.10;;;;;;2361594;54;21076;-72
2022/06/20 01:03:54;;;;;;;6.43;2.90;;;26.90;39.10;;;;;;2292656;55;20989;-75
2022/06/20 01:06:26;;;;;;;5.05;2.20;;;26.90;39.30;;;;;;2294626;55;20941;-71
2022/06/20 01:09:06;;;;;;;5.00;2.37;;;26.80;39.70;;;;;;2288715;55;21490;-76
2022/06/20 01:11:52;;;;;;;6.28;2.47;;;26.80;40.00;;;;;;2289853;55;21395;-72
2022/06/20 01:14:38;;;;;;;4.25;2.37;;;26.80;40.30;;;;;;2292014;55;20970;-70
2022/06/20 01:17:17;;;;;;;4.90;2.55;;;26.70;40.70;;;;;;2291872;55;25172;-71
2022/06/20 01:19:59;;;;;;;4.68;2.37;;;26.70;40.30;;;;;;2290253;55;21544;-70
2022/06/20 01:22:53;;;;;;;6.10;2.63;;;26.70;40.30;;;;;;2288623;55;20960;-70
2022/06/20 01:25:45;;;;;;;4.87;2.30;;;26.60;40.70;;;;;;2292288;55;21006;-71
2022/06/20 01:28:14;;;;;;;3.87;2.17;;;26.60;41.20;;;;;;2288349;55;20992;-71
2022/06/20 01:30:42;;;;;;;4.82;2.75;;;26.60;40.50;;;;;;2290902;55;21049;-71
2022/06/20 01:33:11;;;;;;;5.62;2.35;;;26.50;40.60;;;;;;2289074;55;20995;-71
2022/06/20 01:38:22;;;;;;;5.57;2.55;;;26.50;40.70;;;;;;2290842;55;20976;-71
2022/06/20 01:43:34;;;;;;;4.10;2.47;;;26.40;41.00;;;;;;2470820;54;21013;-71
2022/06/20 01:46:00;;;;;;;5.62;2.60;;;26.50;41.10;;;;;;2441274;54;20984;-74
2022/06/20 01:48:29;;;;;;;7.25;2.10;;;26.40;41.10;;;;;;2289095;55;21008;-70
2022/06/20 01:50:56;;;;;;;4.72;2.40;;;26.40;41.30;;;;;;2288775;55;21004;-71
2022/06/20 01:53:27;;;;;;;3.72;2.37;;;26.40;41.20;;;;;;2288736;55;20968;-71
2022/06/20 01:55:54;;;;;;;4.37;2.40;;;26.40;41.40;;;;;;2523550;54;20992;-70
2022/06/20 01:58:35;;;;;;;4.55;2.60;;;26.40;41.40;;;;;;2288431;55;20989;-72
2022/06/20 02:01:01;;;;;;;4.78;2.70;;;26.40;41.90;;;;;;2286656;55;21529;-71
2022/06/20 02:03:29;;;;;;;5.82;2.78;;;26.40;41.80;;;;;;2293213;55;20977;-71
2022/06/20 02:05:56;;;;;;;5.82;2.83;;;26.40;42.10;;;;;;2287848;55;20945;-72
2022/06/20 02:08:24;;;;;;;5.07;2.65;;;26.30;42.40;;;;;;2289214;55;21059;-73
2022/06/20 02:11:02;;;;;;;5.75;2.90;;;26.30;42.60;;;;;;2287936;55;21410;-72
2022/06/20 02:13:29;;;;;;;4.68;2.53;;;26.30;43.10;;;;;;2293035;54;21404;-71
2022/06/20 02:15:58;;;;;;;4.95;2.97;;;26.30;43.10;;;;;;2293883;55;20977;-72
2022/06/20 02:18:26;;;;;;;5.87;3.05;;;26.30;43.60;;;;;;2287132;55;21056;-72
2022/06/20 02:20:52;;;;;;;9.00;3.05;;;26.30;43.70;;;;;;2291488;55;20940;-74
2022/06/20 02:23:22;;;;;;;7.07;2.47;;;26.30;43.80;;;;;;2304231;54;21512;-72
2022/06/20 02:25:50;;;;;;;6.77;2.67;;;26.30;44.00;;;;;;2289299;55;21016;-75
2022/06/20 02:28:21;;;;;;;6.07;2.75;;;26.30;44.10;;;;;;2288941;55;21472;-71
2022/06/20 02:30:48;;;;;;;4.93;2.40;;;26.30;44.50;;;;;;2288817;55;21016;-71
2022/06/20 02:33:26;;;;;;;4.72;2.65;;;26.40;44.50;;;;;;2291960;55;21081;-72
2022/06/20 02:35:56;;;;;;;7.75;2.50;;;26.40;45.40;;;;;;2462064;54;21040;-71
2022/06/20 02:38:23;;;;;;;6.50;2.45;;;26.40;45.00;;;;;;2288607;55;21088;-73
2022/06/20 02:40:53;;;;;;;4.95;2.53;;;26.40;44.80;;;;;;2381082;54;21051;-73
2022/06/20 02:43:44;;;;;;;7.05;2.70;;;26.40;44.90;;;;;;2288319;55;21434;-71
2022/06/20 02:46:13;;;;;;;4.50;2.47;;;26.50;45.70;;;;;;2385833;54;21578;-72
2022/06/20 02:48:40;;;;;;;4.75;2.10;;;26.50;45.10;;;;;;2521878;54;21476;-73
2022/06/20 02:51:07;;;;;;;4.10;2.12;;;26.50;45.20;;;;;;2288610;55;21252;-73
2022/06/20 02:53:47;;;;;;;5.50;2.42;;;26.50;45.30;;;;;;2288638;55;20945;-73
2022/06/20 02:56:16;;;;;;;4.00;1.80;;;26.60;45.80;;;;;;2292549;55;20981;-74
2022/06/20 02:58:51;;;;;;;4.75;1.92;;;26.60;45.70;;;;;;2288644;55;20944;-74
2022/06/20 03:01:45;;;;;;;4.65;1.98;;;26.60;46.30;;;;;;2299580;55;20950;-74
2022/06/20 03:04:11;;;;;;;4.85;2.12;;;26.60;46.10;;;;;;2289357;55;20936;-74
2022/06/20 03:06:39;;;;;;;4.37;1.98;;;26.60;45.70;;;;;;2288503;55;20928;-72
2022/06/20 03:09:06;;;;;;;3.87;1.90;;;26.60;45.80;;;;;;2290826;55;21002;-72
2022/06/20 03:11:34;;;;;;;5.65;2.05;;;26.60;45.80;;;;;;2289236;55;20999;-72
2022/06/20 03:14:02;;;;;;;4.85;2.20;;;26.70;46.00;;;;;;2288943;55;21394;-72
2022/06/20 03:16:28;;;;;;;4.15;1.85;;;26.70;46.30;;;;;;2291424;55;21427;-73
2022/06/20 03:18:55;;;;;;;6.07;2.15;;;26.70;46.20;;;;;;2292439;55;20960;-73
2022/06/20 03:21:25;;;;;;;5.30;2.22;;;26.70;46.20;;;;;;2481096;54;20953;-73
2022/06/20 03:23:52;;;;;;;4.07;2.00;;;26.70;46.30;;;;;;2366383;54;21040;-72
2022/06/20 03:26:20;;;;;;;4.10;1.98;;;26.70;46.10;;;;;;2523218;54;20924;-74
2022/06/20 03:28:48;;;;;;;3.92;1.95;;;26.70;46.10;;;;;;2289301;55;21114;-72
2022/06/20 03:31:15;;;;;;;5.30;2.05;;;26.70;46.70;;;;;;2289473;55;21468;-74
2022/06/20 03:33:43;;;;;;;3.72;1.87;;;26.70;46.40;;;;;;2269353;55;21469;-72
2022/06/20 03:36:26;;;;;;;4.95;2.30;;;26.70;46.50;;;;;;2294376;55;20938;-73
2022/06/20 03:38:52;;;;;;;4.82;1.75;;;26.70;47.20;;;;;;2292292;55;21566;-73
2022/06/20 03:41:21;;;;;;;4.68;1.80;;;26.70;46.60;;;;;;2288505;55;20908;-73
2022/06/20 03:43:56;;;;;;;5.25;1.65;;;26.70;46.70;;;;;;2289307;55;21044;-74
2022/06/20 03:46:28;;;;;;;4.30;2.12;;;26.70;46.60;;;;;;2289073;55;20991;-72
2022/06/20 03:49:01;;;;;;;4.20;2.12;;;26.70;46.90;;;;;;2367929;54;20992;-72
2022/06/20 03:51:31;;;;;;;4.80;1.67;;;26.70;46.60;;;;;;2524040;54;21028;-72
2022/06/20 03:54:11;;;;;;;8.13;2.25;;;26.70;46.90;;;;;;2290438;55;20980;-74
2022/06/20 03:57:31;;;;;;;4.28;2.00;;;26.70;47.60;;;;;;2291817;55;21059;-74
2022/06/20 04:00:05;;;;;;;6.32;2.67;;;26.60;47.50;;;;;;2291746;55;20976;-72
2022/06/20 04:02:58;;;;;;;4.30;1.65;;;26.60;47.30;;;;;;2289466;55;21036;-74
2022/06/20 04:06:48;;;;;;;3.97;1.70;;;26.50;47.20;;;;;;2288918;55;21469;-72
2022/06/20 04:18:56;;;;;;;2.90;1.20;;;26.60;46.80;;;;;;2442353;54;21137;-71
2022/06/20 04:21:28;;;;;;;4.97;1.50;;;26.40;46.70;;;;;;2288736;55;20965;-71
2022/06/20 04:24:15;;;;;;;4.07;1.65;;;26.40;46.50;;;;;;2293821;55;21097;-71
2022/06/20 04:26:53;;;;;;;4.70;2.12;;;26.40;47.90;;;;;;2290644;55;21029;-72
2022/06/20 04:29:43;;;;;;;5.10;2.20;;;26.30;47.30;;;;;;2290754;55;21556;-70
2022/06/20 04:34:10;;;;;;;4.05;2.20;;;26.30;48.10;;;;;;2352450;54;21012;-71
2022/06/20 04:36:50;;;;;;;4.57;1.85;;;26.20;47.70;;;;;;2289209;55;21320;-73
2022/06/20 04:41:08;;;;;;;5.55;2.08;;;26.20;47.40;;;;;;2288674;55;20956;-72
2022/06/20 04:43:57;;;;;;;3.92;1.83;;;26.20;47.70;;;;;;2295838;55;21049;-74
2022/06/20 04:46:31;;;;;;;7.70;2.10;;;26.20;48.00;;;;;;2296115;55;20936;-74
2022/06/20 04:48:59;;;;;;;5.15;2.08;;;26.20;47.70;;;;;;2288004;55;20948;-72
2022/06/20 04:51:33;;;;;;;4.30;1.90;;;26.10;47.40;;;;;;2291420;55;21525;-72
2022/06/20 04:53:59;;;;;;;4.95;2.25;;;26.10;47.70;;;;;;2288556;55;21020;-73
2022/06/20 04:56:28;;;;;;;5.07;1.95;;;26.10;47.50;;;;;;2288768;55;20965;-71
2022/06/20 04:59:10;;;;;;;5.10;2.50;;;26.10;47.60;;;;;;2523637;54;21013;-72
2022/06/20 05:01:36;;;;;;;3.65;2.05;;;26.20;47.80;;;;;;2288791;55;21949;-72
2022/06/20 05:04:24;;;;;;;4.22;2.08;;;26.20;47.70;;;;;;2523505;54;21544;-73
2022/06/20 05:06:51;;;;;;;3.42;2.28;;;26.20;48.10;;;;;;2293567;55;21122;-71
2022/06/20 05:09:41;;;;;;;5.55;2.17;;;26.20;47.70;;;;;;2319994;54;21017;-72
2022/06/20 05:12:12;;;;;;;6.18;2.50;;;26.20;48.10;;;;;;2288686;55;21008;-72
2022/06/20 05:15:51;;;;;;;4.00;2.45;;;26.20;47.80;;;;;;2350093;54;21040;-71
2022/06/20 05:18:31;;;;;;;3.78;1.90;;;26.20;48.20;;;;;;2292768;55;21443;-69
2022/06/20 05:21:26;;;;;;;4.18;1.83;;;26.20;47.70;;;;;;2294317;55;20998;-71
2022/06/20 05:23:55;;;;;;;4.35;2.10;;;26.20;47.80;;;;;;2290658;55;21439;-72
2022/06/20 05:26:26;;;;;;;3.78;1.70;;;26.30;47.60;;;;;;2295319;55;21041;-72
2022/06/20 05:28:54;;;;;;;4.53;2.00;;;26.30;47.80;;;;;;2272619;55;21539;-73
2022/06/20 05:31:30;;;;;;;3.95;2.22;;;26.30;47.60;;;;;;2512065;53;20990;-71
2022/06/20 05:33:59;;;;;;;4.12;2.03;;;26.30;47.70;;;;;;2287790;55;21366;-72
2022/06/20 05:36:30;;;;;;;4.07;2.08;;;26.30;47.50;;;;;;2294276;55;21827;-72
2022/06/20 05:39:23;;;;;;;3.22;1.70;;;26.30;47.50;;;;;;2503833;54;20978;-71
2022/06/20 05:41:50;;;;;;;3.78;1.70;;;26.40;48.00;;;;;;2292251;55;21041;-72
2022/06/20 05:44:16;;;;;;;4.05;1.70;;;26.40;47.50;;;;;;2289168;55;21051;-70
2022/06/20 05:46:44;;;;;;;3.25;1.67;;;26.40;47.50;;;;;;2384872;54;21752;-73
2022/06/20 05:49:29;;;;;;;2.83;1.83;;;26.50;47.60;;;;;;2288699;55;20932;-70
2022/06/20 05:51:55;;;;;;;3.37;1.70;;;26.50;47.70;;;;;;2461517;54;20956;-71
2022/06/20 05:54:24;;;;;;;4.70;1.80;;;26.50;47.40;;;;;;2287995;55;21787;-72
2022/06/20 05:57:10;;;;;;;4.32;2.00;;;26.60;47.60;;;;;;2288679;55;21027;-74
2022/06/20 05:59:48;;;;;;;3.62;1.73;;;26.60;47.50;;;;;;2318202;54;21193;-74
2022/06/20 06:02:20;;;;;;;3.40;2.08;;;26.60;47.60;;;;;;2484190;54;21060;-72
2022/06/20 06:04:51;;;;;;;;;;;26.70;47.50;;;;;;2295793;55;21083;-72
2022/06/20 06:07:22;;;;;;;4.30;1.67;;;26.70;47.40;;;;;;2288650;55;20326;-71
2022/06/20 06:11:45;;;;;;;4.62;1.87;;;26.80;47.20;;;;;;2292239;55;20953;-72
2022/06/20 06:14:21;;;;;;;2.60;1.65;;;26.90;47.40;;;;;;2289717;55;20940;-72
2022/06/20 06:17:45;;;;;;;4.25;1.92;;;26.90;47.20;;;;;;2292460;55;21013;-72
2022/06/20 06:20:20;;;;;;;3.97;1.85;;;26.90;47.20;;;;;;2287866;55;21023;-72
2022/06/20 06:22:48;;;;;;;4.00;1.90;;;27.00;47.30;;;;;;2287289;55;20996;-70
2022/06/20 06:25:37;;;;;;;5.47;2.20;;;27.00;47.10;;;;;;2288398;55;20948;-72
2022/06/20 06:28:16;;;;;;;5.10;2.20;;;27.10;47.40;;;;;;2294173;55;20965;-71
2022/06/20 06:30:44;;;;;;;3.65;2.12;;;27.10;47.30;;;;;;2292264;55;21081;-71
2022/06/20 06:33:44;;;;;;;6.55;2.33;;;27.10;47.10;;;;;;2287559;55;21008;-72
2022/06/20 06:36:38;;;;;;;3.67;1.77;;;27.20;47.30;;;;;;2288562;55;21370;-70
2022/06/20 06:39:10;;;;;;;4.78;1.90;;;27.30;47.20;;;;;;2523490;54;20980;-69
2022/06/20 06:41:38;;;;;;;3.70;1.92;;;27.30;47.10;;;;;;2321273;54;20964;-71
2022/06/20 06:44:12;;;;;;;4.97;1.95;;;27.40;47.10;;;;;;2380832;54;21029;-72
2022/06/20 06:46:39;;;;;;;4.80;1.95;;;27.50;47.20;;;;;;2307019;54;20952;-71
2022/06/20 06:49:52;;;;;;;4.30;2.00;;;27.50;47.10;;;;;;2409629;54;20987;-70
2022/06/20 06:52:37;;;;;;;3.95;1.55;;;27.60;47.10;;;;;;2286561;55;21480;-69
2022/06/20 06:58:40;;;;;;;4.43;1.95;;;27.70;46.90;;;;;;2494609;54;21522;-71
2022/06/20 07:01:12;;;;;;;3.55;1.95;;;27.90;46.40;;;;;;2286357;55;21080;-71
2022/06/20 07:06:45;;;;;;;6.07;2.20;;;28.00;46.80;;;;;;2286922;55;20984;-72
2022/06/20 07:09:22;;;;;;;4.93;2.42;;;28.10;46.70;;;;;;2286345;55;20948;-72
2022/06/20 07:12:57;;;;;;;3.80;2.28;;;28.20;46.40;;;;;;2286846;55;20980;-73
2022/06/20 07:15:24;;;;;;;4.72;2.35;;;28.20;46.70;;;;;;2268602;55;22048;-73
2022/06/20 07:17:53;;;;;;;5.53;2.33;;;28.20;46.50;;;;;;2288819;55;20969;-73
2022/06/20 07:20:21;;;;;;;6.82;3.03;;;28.30;46.60;;;;;;2288937;55;21009;-70
2022/06/20 07:22:48;;;;;;;4.35;2.53;;;28.40;46.50;;;;;;2292464;55;21842;-70
2022/06/20 07:25:36;;;;;;;5.05;2.87;;;28.40;46.50;;;;;;2291711;55;21680;-73
2022/06/20 07:28:22;;;;;;;5.03;2.45;;;28.50;46.60;;;;;;2292934;55;21457;-70
2022/06/20 07:30:52;;;;;;;6.00;2.85;;;28.50;46.30;;;;;;2288657;55;20947;-70
2022/06/20 07:33:31;;;;;;;6.72;2.83;;;28.60;46.30;;;;;;2288318;55;21019;-70
2022/06/20 07:36:03;;;;;;;5.53;3.22;;;28.60;46.50;;;;;;2288906;55;21012;-72
2022/06/20 07:38:39;;;;;;;6.40;2.95;;;28.70;46.60;;;;;;2288657;55;20928;-72
2022/06/20 07:44:38;;;;;;;5.47;2.37;;;28.80;46.60;;;;;;2315755;54;21060;-72
2022/06/20 07:47:37;;;;;;;5.37;2.40;;;28.90;46.20;;;;;;2422599;54;21051;-73
2022/06/20 07:50:14;;;;;;;6.95;2.90;;;29.00;46.50;;;;;;2288868;55;21427;-73
2022/06/20 07:52:55;;;;;;;4.75;2.47;;;29.10;46.20;;;;;;2292036;55;20952;-74
2022/06/20 07:55:23;;;;;;;5.47;2.80;;;29.20;46.30;;;;;;2523152;54;21000;-72
2022/06/20 07:57:57;;;;;;;4.43;2.55;;;29.20;46.20;;;;;;2288637;55;21052;-73
2022/06/20 08:00:26;;;;;;;6.65;2.83;;;29.30;46.00;;;;;;2319161;54;20937;-72
2022/06/20 08:03:11;;;;;;;4.32;2.70;;;29.40;46.00;;;;;;2286310;55;20976;-73
2022/06/20 08:05:44;;;;;;;4.47;2.22;;;29.40;45.80;;;;;;2273236;55;20954;-71
2022/06/20 08:08:26;;;;;;;4.82;2.40;;;29.50;45.50;;;;;;2295158;55;20990;-72
2022/06/20 08:11:04;;;;;;;4.87;2.72;;;29.60;45.50;;;;;;2291686;55;21037;-72
2022/06/20 08:13:39;;;;;;;3.97;2.35;;;29.60;45.50;;;;;;2291715;55;20985;-71
2022/06/20 08:16:14;;;;;;;5.85;2.95;;;29.60;45.40;;;;;;2290877;55;21041;-72
2022/06/20 08:18:40;;;;;;;7.30;2.70;;;29.70;45.50;;;;;;2289388;55;20993;-70
2022/06/20 08:21:18;;;;;;;6.30;2.92;;;29.70;45.40;;;;;;2522083;54;21088;-72
2022/06/20 08:24:05;;;;;;;4.97;2.78;;;29.80;45.70;;;;;;2293306;55;20981;-72
2022/06/20 08:26:48;;;;;;;5.85;2.90;;;29.80;45.70;;;;;;2287646;55;20936;-73
2022/06/20 08:29:20;;;;;;;4.15;2.40;;;29.90;45.60;;;;;;2291897;55;20932;-75
2022/06/20 08:31:52;;;;;;;4.37;2.87;;;29.90;45.40;;;;;;2288437;55;21036;-72
2022/06/20 08:34:19;;;;;;;;;;;30.00;45.10;;;;;;2295531;55;21029;-71
2022/06/20 08:37:00;;;;;;;4.70;1.73;;;30.10;45.00;;;;;;2487075;54;20097;-75
2022/06/20 08:39:43;;;;;;;4.25;2.42;;;30.20;44.80;;;;;;2518149;54;21080;-72
2022/06/20 08:45:42;;;;;;;6.22;2.30;;;30.20;44.50;;;;;;2289021;55;21790;-71
2022/06/20 08:49:53;;;;;;;4.03;1.90;;;30.20;44.40;;;;;;2288185;55;20977;-73
2022/06/20 08:53:56;;;;;;;4.05;2.10;;;30.40;44.30;;;;;;2291545;55;21016;-72
2022/06/20 08:57:16;;;;;;;4.53;2.00;;;30.50;44.50;;;;;;2288516;55;20951;-72
2022/06/20 09:03:15;;;;;;;4.22;2.20;;;30.50;44.20;;;;;;2288933;55;21020;-73
2022/06/20 09:07:06;;;;;;;5.10;1.90;;;30.70;44.00;;;;;;2523038;54;20997;-71
2022/06/20 09:16:28;;;;;;;5.47;1.92;;;30.70;44.10;;;;;;2290226;55;21006;-72
2022/06/20 09:20:02;;;;;;;3.33;1.75;;;30.80;44.20;;;;;;2288108;55;21912;-73
2022/06/20 09:22:55;;;;;;;4.03;1.77;;;31.00;43.50;;;;;;2288161;55;20980;-73
2022/06/20 09:27:12;;;;;;;5.50;2.33;;;31.00;43.30;;;;;;2287490;55;21024;-73
2022/06/20 09:30:01;;;;;;;8.95;1.80;;;31.10;43.10;;;;;;2291480;55;21497;-73
2022/06/20 09:36:18;;;;;;;3.83;1.58;;;31.20;42.70;;;;;;2289882;55;20996;-73
2022/06/20 09:45:46;;;;;;;3.53;1.40;;;31.30;42.60;;;;;;2290038;55;21419;-72
2022/06/20 09:55:24;;;;;;;5.30;1.42;;;31.30;41.80;;;;;;2333134;54;21784;-74
2022/06/20 10:04:54;;;;;;;3.95;1.50;;;31.40;41.80;;;;;;2288361;55;21481;-72
2022/06/20 10:09:32;;;;;;;3.83;1.40;;;31.50;41.50;;;;;;2287799;55;21072;-73
2022/06/20 10:13:33;;;;;;;3.00;1.40;;;31.50;41.30;;;;;;2485070;54;21457;-73
2022/06/20 10:16:36;;;;;;;3.30;1.40;;;31.60;41.20;;;;;;2291195;55;20977;-73
2022/06/20 10:20:53;;;;;;;3.83;1.30;;;31.60;40.90;;;;;;2287964;55;20964;-75
2022/06/20 10:26:18;;;;;;;3.58;1.25;;;31.60;40.90;;;;;;2371802;54;20972;-73
2022/06/20 10:28:49;;;;;;;3.95;1.25;;;31.70;40.90;;;;;;2287580;55;20940;-72
2022/06/20 10:31:36;;;;;;;3.53;1.12;;;31.80;40.70;;;;;;2268911;55;22022;-74
2022/06/20 10:34:32;;;;;;;4.43;1.48;;;31.80;40.70;;;;;;2287880;55;20976;-72
2022/06/20 10:40:10;;;;;;;4.22;1.50;;;31.80;40.40;;;;;;2335822;54;21062;-73
2022/06/20 10:43:18;;;;;;;2.80;1.40;;;31.80;40.20;;;;;;2287871;55;20996;-74
2022/06/20 10:48:45;;;;;;;3.08;1.40;;;31.90;40.00;;;;;;2321505;54;21877;-74
2022/06/20 10:53:06;;;;;;;2.72;1.27;;;31.90;39.90;;;;;;2287618;55;21541;-75
2022/06/20 10:58:46;;;;;;;3.20;1.48;;;32.00;39.80;;;;;;2287382;55;21008;-73
2022/06/20 11:01:30;;;;;;;2.28;1.00;;;32.00;39.50;;;;;;2286705;55;20984;-74
2022/06/20 11:04:15;;;;;;;2.83;1.05;;;32.00;39.30;;;;;;2287640;55;21055;-77
2022/06/20 11:09:56;;;;;;;2.67;1.05;;;31.90;39.20;;;;;;2308336;54;21045;-74
2022/06/20 11:12:38;;;;;;;2.90;1.20;;;31.90;39.30;;;;;;2287805;55;21675;-73
2022/06/20 11:18:02;;;;;;;2.87;1.15;;;31.80;39.00;;;;;;2295163;55;20961;-75
2022/06/20 11:20:44;;;;;;;3.85;0.90;;;31.80;39.00;;;;;;2522436;54;20957;-74
2022/06/20 11:23:22;;;;;;;2.85;1.10;;;31.70;38.80;;;;;;2369100;54;21389;-74
2022/06/20 11:27:40;;;;;;;1.87;0.88;;;31.70;38.90;;;;;;2287891;55;20952;-74
2022/06/20 11:31:46;;;;;;;2.25;0.85;;;31.60;38.80;;;;;;2349774;54;21497;-77
2022/06/20 11:34:53;;;;;;;2.12;0.90;;;31.60;38.70;;;;;;2494549;54;21576;-74
2022/06/20 11:37:52;;;;;;;5.35;1.10;;;31.60;38.60;;;;;;2282462;55;21045;-74
2022/06/20 11:40:38;;;;;;;1.92;0.95;;;31.50;38.30;;;;;;2279880;55;21083;-74
2022/06/20 11:43:44;;;;;;;2.10;0.77;;;31.40;38.10;;;;;;2279399;55;21079;-76
2022/06/20 11:48:06;;;;;;;3.30;1.10;;;31.40;38.00;;;;;;2286856;55;21128;-75
2022/06/20 11:56:09;;;;;;;2.72;0.90;;;31.30;38.10;;;;;;2279624;55;21989;-74
2022/06/20 11:59:34;;;;;;;3.85;1.20;;;31.20;38.30;;;;;;2279619;55;21902;-74
2022/06/20 12:02:39;;;;;;;2.95;1.05;;;31.10;38.20;;;;;;2287164;55;20993;-77
2022/06/20 12:06:58;;;;;;;2.35;1.10;;;31.10;38.10;;;;;;2320176;54;21462;-75
2022/06/20 12:09:39;;;;;;;2.33;1.00;;;30.90;38.30;;;;;;2276703;55;20964;-76
2022/06/20 12:12:30;;;;;;;2.45;1.00;;;30.90;38.30;;;;;;2441938;55;21059;-76
2022/06/20 12:15:25;;;;;;;3.28;1.37;;;30.80;38.40;;;;;;2280294;55;20956;-76
2022/06/20 12:23:31;;;;;;;4.18;1.60;;;30.70;39.00;;;;;;2513115;54;20976;-72
2022/06/20 12:26:44;;;;;;;5.35;1.65;;;30.70;39.10;;;;;;2280804;54;21067;-72
2022/06/20 12:29:15;;;;;;;3.65;1.60;;;30.60;39.30;;;;;;2280149;55;20972;-71
2022/06/20 12:31:44;;;;;;;4.85;1.60;;;30.60;40.00;;;;;;2284656;55;21072;-73
2022/06/20 12:34:35;;;;;;;4.70;1.62;;;30.60;39.70;;;;;;2280382;55;21020;-73
2022/06/20 12:47:21;;;;;;;4.27;1.70;;;30.60;40.00;;;;;;2282369;55;20992;-73
2022/06/20 12:53:51;;;;;;;2.78;1.08;;;30.50;39.50;;;;;;2289966;55;20997;-71
2022/06/20 12:57:51;;;;;;;4.82;1.33;;;30.40;39.70;;;;;;2328496;54;21529;-73
2022/06/20 13:00:43;;;;;;;4.35;1.65;;;30.30;40.10;;;;;;2289484;55;20965;-73
2022/06/20 13:06:17;;;;;;;4.10;1.30;;;30.30;41.10;;;;;;2287951;55;20964;-74
2022/06/20 13:09:15;;;;;;;2.80;1.15;;;30.30;41.10;;;;;;2291237;55;20945;-74
2022/06/20 13:14:56;;;;;;;3.58;1.27;;;30.50;41.20;;;;;;2293974;55;21537;-74
2022/06/20 13:17:46;;;;;;;3.40;1.47;;;30.50;41.20;;;;;;2280093;54;1307047;-73
2022/06/20 13:22:48;;;;;;;3.85;1.40;;;30.60;40.90;;;;;;2304640;54;20968;-73
2022/06/20 13:25:41;;;;;;;3.35;1.52;;;30.60;40.80;;;;;;2288930;55;20964;-73
2022/06/20 13:28:27;;;;;;;3.17;1.50;;;30.60;40.50;;;;;;2291557;55;21011;-74
2022/06/20 13:31:09;;;;;;;2.67;1.40;;;30.60;40.60;;;;;;2286907;55;21209;-74
2022/06/20 13:33:39;;;;;;;;;;;30.60;40.80;;;;;;2291239;55;21480;-76
2022/06/20 13:38:51;;;;;;;4.35;1.20;;;30.60;40.60;;;;;;2306284;54;20136;-73
2022/06/20 13:41:23;;;;;;;3.53;1.20;;;30.60;40.60;;;;;;2427289;54;21063;-73
2022/06/20 13:46:35;;;;;;;3.75;1.52;;;30.60;40.80;;;;;;2288263;55;20984;-74
2022/06/20 13:49:56;;;;;;;3.53;1.23;;;30.70;40.80;;;;;;2523381;54;20917;-74
2022/06/20 13:52:46;;;;;;;4.97;1.58;;;30.70;40.80;;;;;;2287705;55;21135;-73
2022/06/20 13:59:24;;;;;;;2.42;1.15;;;30.80;40.60;;;;;;2289460;55;21005;-73
2022/06/20 14:03:42;;;;;;;4.18;1.25;;;30.80;40.40;;;;;;2291324;55;20968;-73
2022/06/20 14:06:14;;;;;;;3.28;1.30;;;30.90;40.30;;;;;;2288963;55;20956;-73
2022/06/20 14:08:53;;;;;;;3.00;1.60;;;30.80;40.10;;;;;;2288746;55;20988;-73
2022/06/20 14:13:30;;;;;;;4.20;1.85;;;30.80;40.20;;;;;;2290926;55;20974;-74
2022/06/20 14:16:23;;;;;;;3.20;1.33;;;30.80;40.30;;;;;;2288804;55;21461;-76
2022/06/20 14:19:12;;;;;;;2.95;1.23;;;30.90;40.50;;;;;;2313117;54;20944;-73
2022/06/20 14:21:44;;;;;;;3.10;1.12;;;30.80;40.50;;;;;;2376847;54;20978;-75
2022/06/20 14:24:26;;;;;;;3.90;1.40;;;30.80;40.60;;;;;;2287131;55;20968;-74
2022/06/20 14:28:47;;;;;;;3.33;1.25;;;30.80;40.90;;;;;;2273003;55;21980;-74
2022/06/20 14:31:25;;;;;;;4.87;1.42;;;30.90;40.80;;;;;;2304280;54;20966;-76
2022/06/20 14:34:31;;;;;;;2.85;1.27;;;30.90;40.90;;;;;;2284319;55;21004;-74
2022/06/20 14:37:14;;;;;;;2.87;1.40;;;31.00;41.20;;;;;;2281033;55;21052;-75
2022/06/20 14:39:52;;;;;;;3.55;1.40;;;31.00;41.50;;;;;;2283133;55;20953;-76
2022/06/20 14:49:16;;;;;;;3.60;1.50;;;31.10;41.20;;;;;;2515212;54;21091;-74
2022/06/20 14:51:50;;;;;;;3.05;1.10;;;31.30;40.50;;;;;;2419463;54;21119;-73
2022/06/20 14:54:22;;;;;;;3.03;1.25;;;31.30;40.40;;;;;;2281658;55;20949;-74
2022/06/20 15:00:04;;;;;;;3.78;1.55;;;31.30;40.40;;;;;;2462268;54;20965;-74
2022/06/20 15:02:55;;;;;;;6.05;1.45;;;31.30;40.30;;;;;;2284451;55;21016;-75
2022/06/20 15:05:54;;;;;;;3.42;1.37;;;31.30;40.10;;;;;;2282755;55;20965;-75
2022/06/20 15:08:31;;;;;;;3.55;1.30;;;31.30;40.10;;;;;;2394230;54;22091;-75
2022/06/20 15:11:17;;;;;;;4.53;1.40;;;31.20;40.10;;;;;;2280543;55;20972;-75
2022/06/20 15:20:35;;;;;;;3.80;1.35;;;31.20;40.10;;;;;;2285102;55;20969;-74
2022/06/20 15:23:16;;;;;;;3.10;1.30;;;31.10;39.80;;;;;;2284816;55;20956;-75
2022/06/20 15:25:49;;;;;;;3.37;1.60;;;31.00;39.80;;;;;;2283784;55;21415;-75
2022/06/20 15:28:23;;;;;;;3.60;1.60;;;31.00;40.10;;;;;;2284059;55;21612;-75
2022/06/20 15:34:35;;;;;;;4.07;1.62;;;30.90;40.40;;;;;;2376063;54;21179;-76
2022/06/20 15:44:07;;;;;;;3.00;1.30;;;30.80;40.20;;;;;;2281188;55;20980;-75
2022/06/20 15:46:47;;;;;;;2.22;1.10;;;30.80;40.40;;;;;;2454364;54;21008;-75
2022/06/20 15:53:54;;;;;;;3.47;1.02;;;30.70;40.60;;;;;;2333674;54;20985;-75
2022/06/20 16:03:12;;;;;;;2.58;1.00;;;30.80;41.00;;;;;;2280563;55;21004;-76
2022/06/20 16:05:56;;;;;;;2.55;1.00;;;31.00;40.80;;;;;;2289419;54;21196;-75
2022/06/20 16:08:59;;;;;;;3.05;0.98;;;31.00;40.90;;;;;;2299741;54;21087;-74
2022/06/20 16:11:42;;;;;;;4.15;1.17;;;31.00;40.80;;;;;;2280840;55;21018;-74
2022/06/20 16:14:10;;;;;;;3.72;1.37;;;31.00;41.00;;;;;;2335795;54;22043;-74
2022/06/20 16:16:43;;;;;;;2.50;1.27;;;31.00;40.80;;;;;;2281058;55;21056;-74
2022/06/20 16:19:19;;;;;;;3.25;1.50;;;31.00;41.00;;;;;;2280021;58;21056;-74
2022/06/20 16:21:52;;;;;;;2.72;1.30;;;31.00;41.00;;;;;;2273918;58;21073;-74
2022/06/20 16:24:32;;;;;;;3.70;1.40;;;31.00;41.00;;;;;;2344438;54;21569;-75
2022/06/20 16:27:02;;;;;;;2.83;1.05;;;31.10;41.20;;;;;;2452410;54;21005;-74
2022/06/20 16:29:34;;;;;;;3.55;1.58;;;31.10;40.90;;;;;;2306821;54;21801;-74
2022/06/20 16:33:54;;;;;;;2.78;1.40;;;31.20;41.10;;;;;;2414480;54;21028;-74
2022/06/20 16:36:30;;;;;;;2.45;1.10;;;31.20;40.80;;;;;;2286451;55;22036;-74
2022/06/20 16:39:11;;;;;;;4.75;1.40;;;31.20;40.70;;;;;;2260388;55;21059;-75
2022/06/20 16:42:09;;;;;;;2.70;1.30;;;31.20;40.70;;;;;;2283454;55;21005;-75
2022/06/20 16:46:39;;;;;;;3.03;1.33;;;31.10;40.70;;;;;;2283484;55;20965;-75
2022/06/20 16:49:39;;;;;;;4.10;1.10;;;31.20;40.80;;;;;;2280142;55;20975;-76
2022/06/20 16:52:23;;;;;;;3.92;1.40;;;31.10;40.60;;;;;;2326829;54;21067;-74
2022/06/20 16:54:55;;;;;;;3.00;1.50;;;31.10;40.50;;;;;;2280274;55;20976;-74
2022/06/20 16:58:09;;;;;;;4.07;1.50;;;31.10;40.40;;;;;;2281430;55;21526;-74
2022/06/20 17:00:45;;;;;;;3.15;1.23;;;31.10;40.30;;;;;;2285466;55;21295;-74
2022/06/20 17:06:44;;;;;;;2.55;1.20;;;31.00;40.10;;;;;;2433819;54;20928;-74
2022/06/20 17:09:30;;;;;;;3.30;1.25;;;31.00;40.30;;;;;;2281981;55;21104;-74